Clearbrook, Washington
Current Conditions -  °F | °C
As of 3:00 PM on Sunday 21 Dec 2014 (Local Time) from CYXX Reporting Station
Broken Clouds Broken Clouds  
Wind Chill: 50°   Ceiling: 12000
Heat Index: 50°   Visibility: 15mi
Dew Point: 46°   Wind: 16mph
Humidity: 87%   Direction: 200°SSW
Pressure: 29.95"   Gusts: NA
Location:  48.9612°N, 122.12°W
Report Text: CYXX 212300Z 20014KT 15SM FEW023 SCT060 BKN120 BKN220 10/08 A2995 RMK SC1SC3AC1CI2 PRESRR SLP143
Loading
Personal Weather Stations






























Interactive Weather Map New forecast layout! Learn more

10-Day Weather Forecast

Advertisements
Track Severe Weather on mobile